Time;durP1;ratioP1;P1;durP2;ratioP2;P2;SDS_P1;SDS_P2;PMS_P1;PMS_P2;Temp;Humidity;BMP_temperature;BMP_pressure;BME280_temperature;BME280_humidity;BME280_pressure;Samples;Min_cycle;Max_cycle;Signal;HPM_P1;HPM_P2
2021/09/28 00:00:24;;;;;;;;;7.33;5.67;;;;;15.23;71.07;102035.75;5035429;28;45472;-76
2021/09/28 00:02:49;;;;;;;;;7.67;6.00;;;;;15.20;70.81;102032.22;5035771;28;45768;-78
2021/09/28 00:05:14;;;;;;;;;7.00;7.00;;;;;15.19;71.23;102027.78;5035026;28;50574;-76
2021/09/28 00:07:40;;;;;;;;;8.00;6.00;;;;;15.14;70.69;102028.59;5031465;28;52668;-78
2021/09/28 00:10:05;;;;;;;;;5.67;5.67;;;;;15.14;71.16;102040.13;5037381;28;45478;-76
2021/09/28 00:12:31;;;;;;;;;7.67;6.00;;;;;15.15;70.65;102046.34;5039051;28;45414;-78
2021/09/28 00:14:56;;;;;;;;;9.00;7.33;;;;;15.13;71.07;102050.75;5021364;28;45468;-76
2021/09/28 00:17:21;;;;;;;;;8.67;7.67;;;;;15.10;71.30;102046.28;5038374;28;60802;-76
2021/09/28 00:19:47;;;;;;;;;7.33;6.00;;;;;15.09;70.89;102046.28;5039048;28;45474;-77
2021/09/28 00:22:12;;;;;;;;;9.33;7.00;;;;;15.06;71.35;102052.44;5029837;28;45356;-78
2021/09/28 00:24:38;;;;;;;;;7.33;6.00;;;;;15.04;71.33;102050.63;5037572;28;45294;-76
2021/09/28 00:27:03;;;;;;;;;9.00;7.67;;;;;15.05;71.20;102063.06;5039069;28;46815;-76
2021/09/28 00:29:29;;;;;;;;;10.67;5.33;;;;;15.04;71.08;102058.63;5038142;28;45437;-77
2021/09/28 00:31:55;;;;;;;;;8.67;6.00;;;;;15.00;70.91;102056.78;5038782;28;45227;-78
2021/09/28 00:34:21;;;;;;;;;7.00;5.67;;;;;15.03;71.47;102067.47;5049309;28;53685;-77
2021/09/28 00:36:46;;;;;;;;;6.67;5.00;;;;;15.04;71.74;102067.50;5036828;28;51171;-75
2021/09/28 00:39:11;;;;;;;;;9.67;7.33;;;;;15.03;71.66;102063.06;5038248;28;45442;-76
2021/09/28 00:41:37;;;;;;;;;7.33;6.67;;;;;15.02;71.22;102057.69;5038106;28;56504;-76
2021/09/28 00:44:02;;;;;;;;;6.33;6.00;;;;;14.98;71.30;102048.81;5038442;28;52776;-78
2021/09/28 00:46:28;;;;;;;;;6.00;5.00;;;;;15.01;71.40;102053.25;5038689;28;47526;-77
2021/09/28 00:48:53;;;;;;;;;6.00;6.00;;;;;15.00;71.87;102049.69;5038167;28;60790;-77
2021/09/28 00:51:19;;;;;;;;;7.67;5.33;;;;;14.99;71.28;102047.91;5020641;28;45515;-75
2021/09/28 00:53:44;;;;;;;;;8.67;6.00;;;;;14.99;71.27;102049.69;5037990;28;45401;-76
2021/09/28 00:56:13;;;;;;;;;7.00;6.00;;;;;14.98;71.14;102053.22;5038268;28;45900;-76
2021/09/28 00:58:38;;;;;;;;;5.00;5.00;;;;;14.95;71.60;102054.06;5036689;28;45534;-76
2021/09/28 01:01:04;;;;;;;;;6.00;5.00;;;;;14.97;71.68;102056.72;5028777;28;45417;-76
2021/09/28 01:03:32;;;;;;;;;7.00;6.00;;;;;14.96;71.41;102053.19;5038637;28;45356;-76
2021/09/28 01:05:58;;;;;;;;;5.00;5.00;;;;;14.94;71.44;102046.97;5038134;28;45573;-76
2021/09/28 01:08:23;;;;;;;;;9.00;6.33;;;;;14.96;71.36;102053.19;5038232;28;45470;-75
2021/09/28 01:10:49;;;;;;;;;10.67;7.67;;;;;14.95;71.78;102056.72;5038320;28;45595;-76
2021/09/28 01:13:14;;;;;;;;;8.00;6.67;;;;;14.94;71.36;102047.84;5037719;28;50804;-78
2021/09/28 01:16:00;;;;;;;;;6.33;5.33;;;;;14.90;71.36;102046.03;5037499;28;54394;-76
2021/09/28 01:18:31;;;;;;;;;5.67;5.67;;;;;14.92;71.80;102043.41;5037823;28;45542;-77
2021/09/28 01:20:58;;;;;;;;;7.67;7.00;;;;;14.93;71.62;102055.81;5036585;28;45324;-77
2021/09/28 01:23:23;;;;;;;;;7.67;7.00;;;;;14.92;71.38;102049.63;5028929;28;45598;-76
2021/09/28 01:25:49;;;;;;;;;9.00;8.00;;;;;14.92;71.95;102056.72;5037723;28;47100;-76
2021/09/28 01:28:14;;;;;;;;;5.33;5.33;;;;;14.91;71.79;102047.84;5037485;28;58790;-75
2021/09/28 01:30:39;;;;;;;;;6.00;6.00;;;;;14.92;71.71;102054.94;5037678;28;51077;-76
2021/09/28 01:33:05;;;;;;;;;8.00;6.33;;;;;14.92;71.98;102046.06;5037747;28;52855;-77
2021/09/28 01:35:30;;;;;;;;;7.00;7.00;;;;;14.91;71.82;102053.16;5047393;28;62171;-76
2021/09/28 01:37:56;;;;;;;;;7.00;5.33;;;;;14.91;71.96;102045.19;5033682;28;45250;-78
2021/09/28 01:40:22;;;;;;;;;8.00;6.67;;;;;14.91;71.89;102045.19;5037905;28;45298;-77
2021/09/28 01:42:47;;;;;;;;;13.67;6.67;;;;;14.90;71.69;102043.38;5037856;28;45481;-78
2021/09/28 01:45:12;;;;;;;;;9.33;7.00;;;;;14.91;71.73;102041.59;5036210;28;48401;-76
2021/09/28 01:47:38;;;;;;;;;7.67;6.67;;;;;14.89;71.93;102041.59;5037356;28;45390;-76
2021/09/28 01:50:04;;;;;;;;;6.00;6.00;;;;;14.87;71.64;102032.72;5035926;28;54810;-76
2021/09/28 01:52:32;;;;;;;;;10.00;6.67;;;;;14.82;71.54;102018.47;5037676;28;45859;-76
2021/09/28 01:54:57;;;;;;;;;7.00;6.00;;;;;14.85;71.47;102030.88;5019633;28;46407;-74
2021/09/28 01:57:22;;;;;;;;;5.33;5.00;;;;;14.82;71.46;102034.41;5036790;28;57430;-76
2021/09/28 01:59:48;;;;;;;;;6.00;6.00;;;;;14.83;71.45;102024.66;5043160;28;45454;-76
2021/09/28 02:02:13;;;;;;;;;6.00;5.00;;;;;14.82;71.53;102028.22;5039374;28;54652;-76
2021/09/28 02:04:39;;;;;;;;;4.00;3.00;;;;;14.80;71.31;102020.19;5037136;28;55595;-76
2021/09/28 02:07:04;;;;;;;;;8.67;4.67;;;;;14.79;71.39;102021.06;5036150;28;54878;-76
2021/09/28 02:09:29;;;;;;;;;8.33;4.33;;;;;14.79;71.34;102022.84;5037081;28;46956;-76
2021/09/28 02:11:55;;;;;;;;;5.33;5.00;;;;;14.76;71.86;102022.81;5036802;28;53645;-76
2021/09/28 02:14:26;;;;;;;;;4.00;4.00;;;;;14.74;71.45;102016.56;5036472;28;55865;-75
2021/09/28 02:16:51;;;;;;;;;7.00;4.00;;;;;14.73;71.64;102013.03;5037306;28;45440;-76
2021/09/28 02:19:16;;;;;;;;;9.00;5.67;;;;;14.72;71.38;102013.00;5036914;28;50020;-75
2021/09/28 02:21:42;;;;;;;;;5.00;5.00;;;;;14.71;71.71;102008.56;5029546;28;56843;-75
2021/09/28 02:24:07;;;;;;;;;10.67;7.00;;;;;14.68;71.33;102004.97;5026457;28;52105;-77
2021/09/28 02:26:33;;;;;;;;;13.33;13.00;;;;;14.67;71.42;102008.50;5020738;28;46692;-76
2021/09/28 02:28:58;;;;;;;;;13.33;13.00;;;;;14.67;71.35;101999.66;5031395;28;45457;-76
2021/09/28 02:31:23;;;;;;;;;22.00;18.00;;;;;14.64;71.49;102007.56;5033723;28;45526;-76
2021/09/28 02:33:49;;;;;;;;;29.00;23.67;;;;;14.64;71.38;102000.50;5036600;28;45860;-78
2021/09/28 02:36:14;;;;;;;;;26.67;25.00;;;;;14.64;71.24;102010.22;5036122;28;45390;-77
2021/09/28 02:38:40;;;;;;;;;36.25;32.50;;;;;14.64;71.75;102010.22;5036464;28;45292;-76
2021/09/28 02:41:05;;;;;;;;;46.75;33.25;;;;;14.62;71.72;102004.91;5036767;28;45294;-75
2021/09/28 02:43:30;;;;;;;;;50.00;38.75;;;;;14.61;71.49;102008.44;5008277;28;46314;-78
2021/09/28 02:45:56;;;;;;;;;53.75;41.75;;;;;14.62;71.86;101998.69;5032262;28;45343;-76
2021/09/28 02:48:21;;;;;;;;;51.00;39.25;;;;;14.61;71.93;101999.56;5030998;28;45415;-76
2021/09/28 02:50:47;;;;;;;;;50.00;38.00;;;;;14.59;71.92;101985.34;5033735;28;47289;-76
2021/09/28 02:53:12;;;;;;;;;45.25;35.50;;;;;14.58;71.92;102000.41;5037505;28;46126;-78
2021/09/28 02:55:37;;;;;;;;;54.25;39.25;;;;;14.59;72.04;101988.00;5025024;28;45448;-76
2021/09/28 02:58:03;;;;;;;;;43.75;35.25;;;;;14.58;71.70;101980.91;5020582;28;50777;-78
2021/09/28 03:00:28;;;;;;;;;43.75;35.00;;;;;14.58;72.03;101988.88;5034196;28;49287;-76
2021/09/28 03:02:54;;;;;;;;;45.50;34.75;;;;;14.55;71.94;101978.25;5030861;28;45838;-76
2021/09/28 03:05:19;;;;;;;;;38.00;33.25;;;;;14.56;71.74;101986.22;5023774;28;58721;-76
2021/09/28 03:07:44;;;;;;;;;44.25;34.50;;;;;14.56;71.75;101986.22;5036182;28;46925;-76
2021/09/28 03:10:10;;;;;;;;;39.25;34.75;;;;;14.55;72.02;101984.44;5033891;28;54674;-75
2021/09/28 03:12:35;;;;;;;;;37.75;33.00;;;;;14.55;71.87;101986.22;5033566;28;45384;-75
2021/09/28 03:15:01;;;;;;;;;42.50;34.25;;;;;14.50;71.79;101983.50;5033908;28;55523;-76
2021/09/28 03:17:26;;;;;;;;;37.50;31.25;;;;;14.52;71.82;101986.16;5031080;28;53993;-76
2021/09/28 03:19:52;;;;;;;;;31.50;27.75;;;;;14.51;71.67;101992.34;5029134;28;45273;-77
2021/09/28 03:22:17;;;;;;;;;40.00;30.25;;;;;14.46;71.86;101986.03;5039291;28;46528;-75
2021/09/28 03:24:43;;;;;;;;;37.75;33.00;;;;;14.48;71.60;101995.84;5008796;28;45380;-76
2021/09/28 03:27:09;;;;;;;;;38.25;32.00;;;;;14.47;72.10;101994.06;5021838;28;45633;-77
2021/09/28 03:29:34;;;;;;;;;29.00;27.25;;;;;14.40;71.86;101978.88;5007150;28;45290;-78
2021/09/28 03:31:59;;;;;;;;;33.75;29.25;;;;;14.45;71.63;101987.81;5029774;28;46501;-75
2021/09/28 03:34:25;;;;;;;;;31.00;26.33;;;;;14.45;71.66;101982.50;5039110;28;45445;-76
2021/09/28 03:36:50;;;;;;;;;33.75;30.00;;;;;14.43;71.78;101989.53;5037933;28;52834;-76
2021/09/28 03:39:15;;;;;;;;;28.33;23.00;;;;;14.41;71.89;101980.66;5034570;28;51746;-77
2021/09/28 03:41:41;;;;;;;;;31.00;26.00;;;;;14.40;71.75;101984.19;5021750;28;58004;-78
2021/09/28 03:44:06;;;;;;;;;28.00;26.25;;;;;14.35;71.83;101973.50;5035540;28;45402;-76
2021/09/28 03:46:32;;;;;;;;;28.00;25.00;;;;;14.39;71.70;101982.41;5041459;28;45400;-76
2021/09/28 03:48:57;;;;;;;;;30.33;25.33;;;;;14.37;71.81;101976.16;5034836;28;53908;-76
2021/09/28 03:51:22;;;;;;;;;30.33;25.00;;;;;14.32;71.91;101968.13;5031354;28;50887;-76
2021/09/28 03:53:51;;;;;;;;;28.67;23.67;;;;;14.33;71.69;101969.06;5032299;28;60065;-75
2021/09/28 03:56:18;;;;;;;;;27.75;23.75;;;;;14.29;71.57;101968.13;5027763;28;45441;-75
2021/09/28 03:58:43;;;;;;;;;28.67;24.00;;;;;14.30;71.70;101969.88;5030566;28;45672;-76
2021/09/28 04:01:10;;;;;;;;;27.33;25.00;;;;;14.30;71.79;101967.22;5027230;28;62653;-77
2021/09/28 04:03:35;;;;;;;;;29.67;24.33;;;;;14.29;71.73;101965.44;5040100;28;45462;-76
2021/09/28 04:06:00;;;;;;;;;23.67;13.67;;;;;14.28;71.76;101963.66;5021633;28;55004;-76
2021/09/28 04:08:26;;;;;;;;;25.33;21.33;;;;;14.28;71.67;101966.31;5022211;28;53016;-77
2021/09/28 04:10:51;;;;;;;;;30.33;23.67;;;;;14.23;71.90;101968.03;5020256;28;46358;-77
2021/09/28 04:13:17;;;;;;;;;26.00;21.00;;;;;14.27;72.03;101963.63;5033563;28;60895;-77
2021/09/28 04:15:42;;;;;;;;;24.50;23.00;;;;;14.26;72.29;101972.47;5037745;28;45329;-78
2021/09/28 04:18:08;;;;;;;;;25.33;20.67;;;;;14.22;71.96;101971.56;5034579;28;45400;-76
2021/09/28 04:20:34;;;;;;;;;24.00;19.67;;;;;14.26;71.83;101984.00;5032797;28;46458;-75
2021/09/28 04:23:00;;;;;;;;;26.00;20.00;;;;;14.28;71.86;101992.00;5013045;28;45468;-76
2021/09/28 04:25:25;;;;;;;;;25.67;18.67;;;;;14.26;71.82;101984.00;5035524;28;45412;-76
2021/09/28 04:27:51;;;;;;;;;28.00;21.00;;;;;14.27;72.26;101985.78;5035173;28;51781;-78
2021/09/28 04:30:16;;;;;;;;;17.67;17.33;;;;;14.28;72.34;101987.59;5030275;28;60715;-78
2021/09/28 04:32:41;;;;;;;;;22.33;19.67;;;;;14.25;72.17;101983.97;5031294;28;54480;-75
2021/09/28 04:35:07;;;;;;;;;19.67;17.67;;;;;14.30;72.08;101995.56;5038562;28;46077;-77
2021/09/28 04:37:32;;;;;;;;;24.33;22.00;;;;;14.30;72.56;101991.16;5019279;28;45602;-77
2021/09/28 04:39:58;;;;;;;;;20.67;19.67;;;;;14.31;72.42;101992.91;5034090;28;62531;-78
2021/09/28 04:42:23;;;;;;;;;23.00;19.67;;;;;14.34;72.27;101994.75;5035852;28;56926;-76
2021/09/28 04:44:49;;;;;;;;;18.33;18.33;;;;;14.33;72.57;101988.53;5036002;28;53025;-75
2021/09/28 04:47:14;;;;;;;;;18.00;18.00;;;;;14.34;72.47;101982.34;5037529;28;45309;-78
2021/09/28 04:49:39;;;;;;;;;24.00;20.67;;;;;14.30;72.25;101974.31;5033879;28;57875;-76
2021/09/28 04:52:05;;;;;;;;;26.67;22.67;;;;;14.31;72.54;101974.31;5033545;28;45451;-76
2021/09/28 04:54:30;;;;;;;;;22.67;22.33;;;;;14.35;72.26;101980.59;5025742;28;45455;-76
2021/09/28 04:56:56;;;;;;;;;24.00;20.33;;;;;14.37;72.65;101985.03;5036619;28;47029;-78
2021/09/28 04:59:21;;;;;;;;;25.00;19.67;;;;;14.34;72.39;101973.50;5034761;28;46543;-76
2021/09/28 05:01:46;;;;;;;;;23.33;19.33;;;;;14.40;72.52;101987.75;5017248;28;59069;-75
2021/09/28 05:04:12;;;;;;;;;22.67;22.00;;;;;14.42;72.52;101993.06;5034532;28;56450;-75
2021/09/28 05:06:37;;;;;;;;;27.67;24.00;;;;;14.37;72.61;101981.47;5034049;28;45634;-75
2021/09/28 05:09:03;;;;;;;;;26.00;21.75;;;;;14.41;72.17;101986.88;5027424;28;60611;-75
2021/09/28 05:11:28;;;;;;;;;27.33;22.00;;;;;14.41;72.22;101980.66;5031287;28;52130;-76
2021/09/28 05:13:53;;;;;;;;;24.67;18.67;;;;;14.39;72.19;101988.63;5030936;28;45442;-74
2021/09/28 05:16:20;;;;;;;;;26.67;22.00;;;;;14.41;72.51;101988.63;5036242;28;45352;-75
2021/09/28 05:18:46;;;;;;;;;22.67;19.00;;;;;14.36;72.59;101985.91;5018552;28;46474;-75
2021/09/28 05:21:11;;;;;;;;;23.00;20.33;;;;;14.40;72.28;101989.50;5033699;28;45340;-75
2021/09/28 05:23:37;;;;;;;;;22.67;19.33;;;;;14.35;72.12;101997.41;5028901;28;50892;-76
2021/09/28 05:26:02;;;;;;;;;22.00;21.67;;;;;14.23;71.75;102001.69;5035411;28;45419;-76
2021/09/28 05:28:27;;;;;;;;;24.00;22.00;;;;;14.06;72.36;101997.00;5036491;28;61426;-75
2021/09/28 05:30:54;;;;;;;;;25.33;18.67;;;;;13.93;72.82;101995.00;5035679;28;54466;-75
2021/09/28 05:33:20;;;;;;;;;24.33;22.33;;;;;13.80;73.18;101987.72;5031259;28;45456;-75
2021/09/28 05:35:45;;;;;;;;;26.67;20.67;;;;;13.67;73.57;101989.28;5032294;28;45651;-75
2021/09/28 05:38:11;;;;;;;;;24.33;23.33;;;;;13.64;74.01;101991.91;5026299;28;47284;-75
2021/09/28 05:40:36;;;;;;;;;21.00;20.00;;;;;13.58;74.42;101981.16;5034062;28;57464;-75
2021/09/28 05:43:02;;;;;;;;;18.00;17.67;;;;;13.52;74.84;101975.72;5036738;28;46496;-75
2021/09/28 05:45:27;;;;;;;;;20.67;19.33;;;;;13.46;74.59;101979.19;5037899;28;45315;-75
2021/09/28 05:47:52;;;;;;;;;22.67;20.00;;;;;13.42;75.18;101974.69;5033299;28;55574;-74
2021/09/28 05:50:20;;;;;;;;;23.67;20.67;;;;;13.36;75.01;101963.97;5033274;28;47283;-75
2021/09/28 05:52:46;;;;;;;;;15.25;13.25;;;;;13.30;75.46;101958.56;5027734;28;45535;-75
2021/09/28 05:55:12;;;;;;;;;20.33;20.00;;;;;13.33;75.23;101959.50;4997531;28;45286;-75
2021/09/28 05:57:37;;;;;;;;;29.33;23.00;;;;;13.40;75.33;101971.13;5027297;28;47591;-75
2021/09/28 06:00:04;;;;;;;;;23.00;17.67;;;;;13.48;75.25;101963.31;5036644;28;56865;-75
2021/09/28 06:02:29;;;;;;;;;18.33;18.33;;;;;13.51;74.96;101952.72;5036233;28;46305;-74
2021/09/28 06:04:54;;;;;;;;;27.00;20.00;;;;;13.61;75.40;101963.53;5032251;28;50393;-74
2021/09/28 06:07:20;;;;;;;;;21.00;18.67;;;;;13.62;75.48;101964.41;5030233;28;47252;-76
2021/09/28 06:09:46;;;;;;;;;21.33;19.33;;;;;13.67;75.36;101964.50;5032884;28;45502;-74
2021/09/28 06:12:11;;;;;;;;;22.67;20.33;;;;;13.65;75.30;101964.47;5027726;28;45474;-72
2021/09/28 06:14:37;;;;;;;;;20.33;17.67;;;;;13.66;75.51;101971.56;5036015;28;45510;-76
2021/09/28 06:17:03;;;;;;;;;23.00;20.00;;;;;13.75;75.34;101970.84;5027186;28;46526;-76
2021/09/28 06:19:28;;;;;;;;;18.00;18.00;;;;;13.78;75.18;101976.19;5036050;28;45308;-76
2021/09/28 06:21:57;;;;;;;;;19.33;16.67;;;;;13.80;75.48;101961.19;5017995;28;45519;-76
2021/09/28 06:24:23;;;;;;;;;22.00;17.00;;;;;13.83;75.40;101964.75;5033959;28;45367;-76
2021/09/28 06:26:48;;;;;;;;;18.00;17.33;;;;;13.91;75.36;101964.91;5028001;28;56276;-75
2021/09/28 06:29:14;;;;;;;;;22.00;17.00;;;;;13.95;75.44;101957.84;5030800;28;57320;-75
2021/09/28 06:31:40;;;;;;;;;24.67;20.00;;;;;14.04;75.26;101966.84;5032649;28;45309;-76
2021/09/28 06:34:05;;;;;;;;;22.67;19.33;;;;;14.09;75.65;101957.19;5028832;28;45478;-75
2021/09/28 06:36:30;;;;;;;;;21.00;17.33;;;;;14.19;75.36;101971.50;5036167;28;50477;-75
2021/09/28 06:38:56;;;;;;;;;21.67;18.67;;;;;14.18;75.48;101964.41;5044494;28;50996;-74
2021/09/28 06:41:21;;;;;;;;;24.00;17.67;;;;;14.27;74.87;101967.19;5042506;28;58522;-75
2021/09/28 06:43:47;;;;;;;;;17.67;15.00;;;;;14.35;74.78;101973.50;5029849;28;45306;-75
2021/09/28 06:46:13;;;;;;;;;21.67;19.00;;;;;14.42;74.93;101966.50;5025254;28;47942;-73
2021/09/28 06:48:38;;;;;;;;;26.25;25.25;;;;;14.48;74.94;101963.94;5034775;28;45431;-74
2021/09/28 06:51:03;;;;;;;;;19.00;16.33;;;;;14.54;74.96;101966.72;5040772;28;53201;-74
2021/09/28 06:53:29;;;;;;;;;20.00;15.67;;;;;14.62;74.92;101969.47;5039057;28;45511;-74
2021/09/28 06:55:54;;;;;;;;;17.33;17.00;;;;;14.70;75.30;101964.22;5036257;28;59071;-74
2021/09/28 06:58:20;;;;;;;;;35.00;32.25;;;;;14.76;74.88;101964.31;5026167;28;45493;-75
2021/09/28 07:00:45;;;;;;;;;33.50;33.00;;;;;14.82;74.59;101959.06;5038006;28;49478;-74
2021/09/28 07:03:11;;;;;;;;;14.67;12.67;;;;;14.86;74.53;101956.47;5037413;28;52726;-74
2021/09/28 07:05:36;;;;;;;;;9.00;8.00;;;;;14.93;74.49;101962.75;5033421;28;47243;-75
2021/09/28 07:08:01;;;;;;;;;8.00;7.00;;;;;14.99;74.27;101964.56;5039094;28;45365;-74
2021/09/28 07:10:27;;;;;;;;;6.67;5.00;;;;;15.00;74.07;101956.59;5039806;28;53384;-75
2021/09/28 07:12:52;;;;;;;;;10.67;8.67;;;;;15.09;73.38;101962.03;5032525;28;45490;-75
2021/09/28 07:15:18;;;;;;;;;10.00;8.00;;;;;15.14;73.57;101968.28;5038097;28;46317;-75
2021/09/28 07:17:44;;;;;;;;;13.33;8.00;;;;;15.19;72.66;101961.25;5037186;28;45376;-75
2021/09/28 07:20:09;;;;;;;;;6.00;2.33;;;;;15.23;72.95;101953.28;5036928;28;45388;-74
2021/09/28 07:22:35;;;;;;;;;5.67;4.00;;;;;15.30;72.84;101958.69;5040401;28;45583;-75
2021/09/28 07:25:00;;;;;;;;;7.33;3.00;;;;;15.33;73.00;101955.16;5042640;28;46662;-74
2021/09/28 07:27:26;;;;;;;;;6.00;3.00;;;;;15.34;71.92;101962.25;5037011;28;45483;-74
2021/09/28 07:29:51;;;;;;;;;8.33;4.33;;;;;15.39;72.22;101960.53;5017247;22;47331;-74
2021/09/28 07:32:16;;;;;;;;;4.33;4.33;;;;;15.41;71.32;101962.34;4996828;28;45461;-75
2021/09/28 07:34:42;;;;;;;;;4.67;3.00;;;;;15.43;71.13;101952.59;5028634;28;46325;-75
2021/09/28 07:37:08;;;;;;;;;3.00;3.00;;;;;15.45;70.31;101956.19;5025754;28;45391;-74
2021/09/28 07:39:33;;;;;;;;;7.67;7.00;;;;;15.49;71.15;101954.41;5034191;28;47305;-75
2021/09/28 07:41:58;;;;;;;;;6.33;5.67;;;;;15.48;71.76;101942.00;5033638;28;52744;-75
2021/09/28 07:44:24;;;;;;;;;10.33;5.67;;;;;15.56;71.79;101955.38;5029866;28;56254;-73
2021/09/28 07:46:50;;;;;;;;;7.67;7.00;;;;;15.59;71.21;101953.63;5027011;28;45698;-74
2021/09/28 07:49:16;;;;;;;;;9.00;6.00;;;;;15.59;71.02;101953.63;5028332;28;45482;-74
2021/09/28 07:51:41;;;;;;;;;6.00;5.00;;;;;15.66;71.02;101952.84;5033844;28;51145;-75
2021/09/28 07:54:07;;;;;;;;;5.00;5.00;;;;;15.69;70.16;101954.63;5034171;28;58628;-73
2021/09/28 07:56:32;;;;;;;;;6.00;4.33;;;;;15.75;69.70;101961.78;5030612;28;45913;-73
2021/09/28 07:58:59;;;;;;;;;9.33;6.00;;;;;15.75;69.71;101961.78;5033404;28;55012;-74
2021/09/28 08:01:24;;;;;;;;;6.33;3.00;;;;;15.84;69.50;101964.50;5031103;28;45590;-75
2021/09/28 08:03:50;;;;;;;;;7.00;5.00;;;;;15.89;69.06;101963.66;5034335;28;46112;-74
2021/09/28 08:06:15;;;;;;;;;7.00;4.00;;;;;15.89;68.47;101955.69;5032252;28;45399;-74
2021/09/28 08:08:41;;;;;;;;;5.00;4.00;;;;;15.97;69.35;101963.69;5027775;28;45518;-73
2021/09/28 08:11:07;;;;;;;;;5.00;3.00;;;;;15.98;68.17;101955.75;5032754;28;45285;-74
2021/09/28 08:13:33;;;;;;;;;6.33;4.67;;;;;16.06;67.83;101962.88;5030358;28;46456;-74
2021/09/28 08:15:58;;;;;;;;;4.00;4.00;;;;;16.10;68.49;101960.25;5033194;28;49112;-75
2021/09/28 08:18:23;;;;;;;;;6.00;3.33;;;;;16.16;68.50;101957.63;5031346;28;46626;-75
2021/09/28 08:20:49;;;;;;;;;7.00;5.00;;;;;16.20;67.16;101963.88;5028411;28;45504;-76
2021/09/28 08:23:16;;;;;;;;;7.33;3.00;;;;;16.21;66.12;101965.66;5030304;28;46139;-75
2021/09/28 08:31:07;;;;;;;;;3.00;3.00;;;;;16.38;67.11;101957.75;4977381;28;45477;-73
2021/09/28 08:33:33;;;;;;;;;7.33;3.67;;;;;16.48;65.87;101957.78;5033422;28;45698;-75
2021/09/28 08:35:58;;;;;;;;;5.00;4.00;;;;;16.51;65.98;101951.56;5032698;28;45333;-75
2021/09/28 08:38:24;;;;;;;;;7.00;4.00;;;;;16.59;66.11;101959.63;5032998;28;45498;-73
2021/09/28 08:40:50;;;;;;;;;5.00;3.00;;;;;16.60;65.63;101961.41;5038317;28;45791;-75
2021/09/28 08:43:16;;;;;;;;;8.00;5.00;;;;;16.66;65.45;101962.31;5033510;28;45504;-75
2021/09/28 08:45:42;;;;;;;;;3.00;3.00;;;;;16.69;65.04;101969.44;5037022;28;45456;-75
2021/09/28 08:48:10;;;;;;;;;5.33;3.33;;;;;16.71;65.76;101960.59;5039960;28;45369;-75
2021/09/28 08:50:38;;;;;;;;;5.67;5.00;;;;;16.80;65.07;101957.06;5033116;28;45654;-76
2021/09/28 08:53:03;;;;;;;;;4.00;2.33;;;;;16.85;64.99;101957.09;5020192;28;46429;-74
2021/09/28 08:55:29;;;;;;;;;5.00;2.33;;;;;16.88;64.03;101957.06;5031877;28;45569;-76
2021/09/28 08:58:11;;;;;;;;;5.00;3.00;;;;;16.89;64.43;101962.44;5019688;28;45386;-75
2021/09/28 09:00:36;;;;;;;;;2.00;2.00;;;;;16.89;64.42;101950.88;5026849;28;45599;-74
2021/09/28 09:03:02;;;;;;;;;5.33;2.33;;;;;17.00;64.06;101959.81;5036072;28;63427;-74
2021/09/28 09:05:27;;;;;;;;;6.00;3.00;;;;;17.06;64.92;101957.16;5013177;28;59171;-75
2021/09/28 09:08:06;;;;;;;;;6.00;3.67;;;;;17.11;65.26;101958.06;5037631;28;45305;-75
2021/09/28 09:10:32;;;;;;;;;6.67;4.00;;;;;17.21;64.50;101962.53;5033541;28;45669;-74
2021/09/28 09:12:58;;;;;;;;;3.00;2.00;;;;;17.24;63.14;101959.84;5031970;28;46603;-76
2021/09/28 09:15:29;;;;;;;;;7.67;3.00;;;;;17.31;64.07;101959.84;5032319;28;59142;-76
2021/09/28 09:18:22;;;;;;;;;4.00;4.00;;;;;17.36;62.93;101964.28;5036589;28;45399;-74
2021/09/28 09:20:47;;;;;;;;;9.33;5.33;;;;;17.42;63.48;101959.00;5023103;28;46504;-75
2021/09/28 09:23:29;;;;;;;;;6.33;4.33;;;;;17.50;64.10;101953.63;5030226;28;46365;-74
2021/09/28 09:26:14;;;;;;;;;5.33;4.00;;;;;17.62;64.25;101948.28;5030005;28;45453;-74
2021/09/28 09:28:53;;;;;;;;;3.00;3.00;;;;;17.64;63.78;101935.84;5030320;28;45493;-76
2021/09/28 09:31:22;;;;;;;;;7.33;4.00;;;;;17.76;63.82;101938.53;5029218;28;45358;-76
2021/09/28 09:33:47;;;;;;;;;4.33;2.00;;;;;17.88;62.81;101945.63;5026360;28;47276;-77
2021/09/28 09:36:18;;;;;;;;;6.33;3.00;;;;;17.96;63.29;101937.63;5030174;28;45543;-76
2021/09/28 09:38:48;;;;;;;;;2.00;2.00;;;;;18.03;62.41;101934.91;5028103;28;45389;-76
2021/09/28 09:41:14;;;;;;;;;4.00;3.00;;;;;18.12;62.92;101923.31;5035316;28;45612;-78
2021/09/28 09:43:39;;;;;;;;;2.33;2.33;;;;;18.21;62.50;101922.38;5031443;28;46377;-76
2021/09/28 09:46:17;;;;;;;;;5.67;3.00;;;;;18.29;62.28;101915.25;5035080;28;45491;-77
2021/09/28 09:48:43;;;;;;;;;4.33;1.00;;;;;18.35;61.99;101906.31;5031208;28;45233;-76
2021/09/28 09:51:12;;;;;;;;;4.00;3.00;;;;;18.45;61.08;101908.94;5034436;28;45504;-75
2021/09/28 09:53:50;;;;;;;;;4.00;1.00;;;;;18.53;61.03;101898.19;5035316;28;46580;-75
2021/09/28 09:56:16;;;;;;;;;4.00;1.33;;;;;18.63;60.59;101904.41;5034446;28;45645;-76
2021/09/28 09:58:41;;;;;;;;;5.33;1.33;;;;;18.67;58.71;101904.38;5021694;28;45505;-74
2021/09/28 10:01:06;;;;;;;;;5.33;1.33;;;;;18.70;57.41;101893.72;5032765;28;54147;-75
2021/09/28 10:03:32;;;;;;;;;1.33;1.33;;;;;18.71;60.00;101887.44;5032828;28;60077;-75
2021/09/28 10:05:57;;;;;;;;;4.33;1.00;;;;;18.80;58.41;101895.44;5035244;28;45424;-74
2021/09/28 10:08:23;;;;;;;;;2.33;1.00;;;;;18.89;59.00;101888.22;4995499;28;51555;-75
2021/09/28 10:10:57;;;;;;;;;1.33;1.00;;;;;18.95;59.85;101880.16;5033829;28;55079;-75
2021/09/28 10:13:44;;;;;;;;;3.33;1.00;;;;;19.03;58.78;101895.28;5034198;28;46303;-74
2021/09/28 10:16:28;;;;;;;;;2.00;2.00;;;;;19.05;56.24;101895.25;5031284;28;45553;-75
2021/09/28 10:18:54;;;;;;;;;2.00;1.67;;;;;19.06;58.34;101894.34;5026289;28;45498;-74
2021/09/28 10:21:45;;;;;;;;;1.00;1.00;;;;;19.10;58.70;101898.78;5004862;28;47975;-75
2021/09/28 10:24:24;;;;;;;;;2.00;0.33;;;;;19.17;58.29;101896.94;5033617;28;46774;-72
2021/09/28 10:26:55;;;;;;;;;1.00;1.00;;;;;19.20;58.28;101902.28;5033656;28;45519;-75
2021/09/28 10:29:40;;;;;;;;;1.33;0.00;;;;;19.19;56.46;101895.16;5033779;28;45502;-74
2021/09/28 10:32:21;;;;;;;;;3.00;0.33;;;;;19.19;57.06;101895.16;5031175;28;45548;-73
2021/09/28 10:35:01;;;;;;;;;1.00;1.00;;;;;19.21;56.54;101896.91;5030125;28;45491;-74
2021/09/28 10:37:42;;;;;;;;;0.00;0.00;;;;;19.25;56.65;101896.00;5029079;28;45537;-74
2021/09/28 10:40:13;;;;;;;;;1.00;0.00;;;;;19.28;56.16;101897.75;5035421;28;45460;-73
2021/09/28 10:42:49;;;;;;;;;3.00;1.00;;;;;19.31;56.43;101898.63;5020822;28;45586;-75
2021/09/28 10:45:44;;;;;;;;;3.00;0.67;;;;;19.35;55.89;101896.81;5031690;28;46402;-73
2021/09/28 10:48:16;;;;;;;;;1.33;0.00;;;;;19.38;56.80;101899.47;5016511;28;45566;-72
2021/09/28 10:50:42;;;;;;;;;1.00;1.00;;;;;19.36;56.19;101893.25;5020472;28;45325;-73
2021/09/28 10:53:19;;;;;;;;;1.00;1.00;;;;;19.40;55.33;101891.44;5033175;28;45500;-74
2021/09/28 10:55:54;;;;;;;;;1.00;0.33;;;;;19.47;55.58;101893.16;5024350;28;46641;-73
2021/09/28 10:58:22;;;;;;;;;1.33;0.33;;;;;19.55;54.99;101886.81;5022701;28;45574;-74
2021/09/28 11:00:53;;;;;;;;;2.67;1.00;;;;;19.65;54.90;101876.03;5024897;28;45843;-73
2021/09/28 11:03:41;;;;;;;;;1.00;1.00;;;;;19.74;54.75;101876.84;5033351;28;45460;-73
2021/09/28 11:06:07;;;;;;;;;3.00;1.00;;;;;19.81;54.52;101877.66;5030919;28;47463;-74
2021/09/28 11:08:36;;;;;;;;;1.67;0.00;;;;;19.89;54.83;101875.78;5020096;28;45578;-74
2021/09/28 11:11:02;;;;;;;;;4.33;0.00;;;;;19.96;53.11;101868.56;5027939;28;45538;-76
2021/09/28 11:13:32;;;;;;;;;4.67;0.67;;;;;20.02;54.38;101866.69;5032184;28;45556;-74
2021/09/28 11:15:58;;;;;;;;;2.67;0.33;;;;;20.03;54.10;101854.22;5010848;28;46567;-74
2021/09/28 11:18:23;;;;;;;;;0.67;0.67;;;;;20.11;53.62;101866.59;5034981;28;45440;-74
2021/09/28 11:20:49;;;;;;;;;0.67;0.33;;;;;20.13;52.85;101861.19;5028821;28;45473;-75
2021/09/28 11:23:14;;;;;;;;;3.67;0.33;;;;;20.17;53.26;101856.69;5034022;28;45577;-74